sensor_id;sensor_type;location;lat;lon;timestamp;pressure;altitude;pressure_sealevel;temperature;humidity
65758;BME280;52495;52.208;5.158;2023-04-05T00:00:00;102499.53;;;5.41;66.12
65758;BME280;52495;52.208;5.158;2023-04-05T00:02:32;102495.06;;;5.34;66.32
65758;BME280;52495;52.208;5.158;2023-04-05T00:04:58;102501.00;;;5.33;66.20
65758;BME280;52495;52.208;5.158;2023-04-05T00:07:28;102497.28;;;5.23;66.33
65758;BME280;52495;52.208;5.158;2023-04-05T00:09:59;102491.34;;;5.24;66.68
65758;BME280;52495;52.208;5.158;2023-04-05T00:12:25;102488.78;;;5.24;66.47
65758;BME280;52495;52.208;5.158;2023-04-05T00:14:52;102495.31;;;5.14;67.07
65758;BME280;52495;52.208;5.158;2023-04-05T00:17:19;102488.44;;;5.13;67.10
65758;BME280;52495;52.208;5.158;2023-04-05T00:19:46;102482.25;;;5.07;67.23
65758;BME280;52495;52.208;5.158;2023-04-05T00:22:22;102494.16;;;5.06;67.45
65758;BME280;52495;52.208;5.158;2023-04-05T00:24:52;102486.50;;;5.06;66.93
65758;BME280;52495;52.208;5.158;2023-04-05T00:27:19;102487.16;;;5.00;67.67
65758;BME280;52495;52.208;5.158;2023-04-05T00:29:46;102481.88;;;4.94;67.53
65758;BME280;52495;52.208;5.158;2023-04-05T00:32:12;102475.81;;;4.92;67.92
65758;BME280;52495;52.208;5.158;2023-04-05T00:34:39;102482.69;;;4.93;67.22
65758;BME280;52495;52.208;5.158;2023-04-05T00:37:06;102472.25;;;4.87;67.73
65758;BME280;52495;52.208;5.158;2023-04-05T00:39:33;102471.31;;;4.85;68.06
65758;BME280;52495;52.208;5.158;2023-04-05T00:42:02;102470.47;;;4.84;67.84
65758;BME280;52495;52.208;5.158;2023-04-05T00:44:30;102476.41;;;4.83;67.85
65758;BME280;52495;52.208;5.158;2023-04-05T00:46:59;102469.56;;;4.84;68.19
65758;BME280;52495;52.208;5.158;2023-04-05T00:49:27;102475.41;;;4.80;68.23
65758;BME280;52495;52.208;5.158;2023-04-05T00:51:55;102467.56;;;4.75;67.80
65758;BME280;52495;52.208;5.158;2023-04-05T00:54:23;102468.47;;;4.76;67.94
65758;BME280;52495;52.208;5.158;2023-04-05T00:56:50;102474.41;;;4.75;68.20
65758;BME280;52495;52.208;5.158;2023-04-05T00:59:19;102462.34;;;4.72;68.02
65758;BME280;52495;52.208;5.158;2023-04-05T01:01:49;102463.72;;;4.62;68.01
65758;BME280;52495;52.208;5.158;2023-04-05T01:04:21;102461.91;;;4.58;68.44
65758;BME280;52495;52.208;5.158;2023-04-05T01:06:58;102461.72;;;4.53;68.72
65758;BME280;52495;52.208;5.158;2023-04-05T01:09:32;102461.53;;;4.47;68.95
65758;BME280;52495;52.208;5.158;2023-04-05T01:12:05;102460.66;;;4.47;68.86
65758;BME280;52495;52.208;5.158;2023-04-05T01:14:46;102459.84;;;4.48;69.25
65758;BME280;52495;52.208;5.158;2023-04-05T01:17:15;102452.97;;;4.47;69.00
65758;BME280;52495;52.208;5.158;2023-04-05T01:19:46;102455.34;;;4.40;69.19
65758;BME280;52495;52.208;5.158;2023-04-05T01:25:31;102450.13;;;4.37;69.58
65758;BME280;52495;52.208;5.158;2023-04-05T01:28:22;102452.44;;;4.31;69.62
65758;BME280;52495;52.208;5.158;2023-04-05T01:31:06;102449.09;;;4.32;69.81
65758;BME280;52495;52.208;5.158;2023-04-05T01:33:40;102446.41;;;4.29;69.86
65758;BME280;52495;52.208;5.158;2023-04-05T01:36:16;102436.97;;;4.27;70.05
65758;BME280;52495;52.208;5.158;2023-04-05T01:38:45;102436.91;;;4.25;70.23
65758;BME280;52495;52.208;5.158;2023-04-05T01:41:14;102434.94;;;4.18;70.36
65758;BME280;52495;52.208;5.158;2023-04-05T01:43:41;102435.53;;;4.10;70.54
65758;BME280;52495;52.208;5.158;2023-04-05T01:46:09;102434.66;;;4.08;70.77
65758;BME280;52495;52.208;5.158;2023-04-05T01:48:36;102430.13;;;4.01;70.49
65758;BME280;52495;52.208;5.158;2023-04-05T01:51:03;102433.38;;;3.97;71.08
65758;BME280;52495;52.208;5.158;2023-04-05T01:53:30;102428.06;;;3.91;70.93
65758;BME280;52495;52.208;5.158;2023-04-05T01:55:59;102432.13;;;3.86;70.79
65758;BME280;52495;52.208;5.158;2023-04-05T01:58:26;102425.91;;;3.79;71.30
65758;BME280;52495;52.208;5.158;2023-04-05T02:00:53;102421.63;;;3.78;71.15
65758;BME280;52495;52.208;5.158;2023-04-05T02:03:22;102424.00;;;3.73;71.50
65758;BME280;52495;52.208;5.158;2023-04-05T02:05:49;102426.44;;;3.70;71.85
65758;BME280;52495;52.208;5.158;2023-04-05T02:08:16;102418.78;;;3.70;72.27
65758;BME280;52495;52.208;5.158;2023-04-05T02:10:44;102426.38;;;3.69;72.33
65758;BME280;52495;52.208;5.158;2023-04-05T02:13:12;102425.53;;;3.68;72.43
65758;BME280;52495;52.208;5.158;2023-04-05T02:15:39;102416.13;;;3.67;72.53
65758;BME280;52495;52.208;5.158;2023-04-05T02:18:06;102412.59;;;3.63;72.31
65758;BME280;52495;52.208;5.158;2023-04-05T02:20:35;102408.97;;;3.58;72.60
65758;BME280;52495;52.208;5.158;2023-04-05T02:23:02;102402.16;;;3.59;72.73
65758;BME280;52495;52.208;5.158;2023-04-05T02:25:28;102407.94;;;3.53;72.82
65758;BME280;52495;52.208;5.158;2023-04-05T02:27:56;102395.00;;;3.48;72.78
65758;BME280;52495;52.208;5.158;2023-04-05T02:30:23;102403.53;;;3.49;72.91
65758;BME280;52495;52.208;5.158;2023-04-05T02:32:53;102407.59;;;3.44;73.20
65758;BME280;52495;52.208;5.158;2023-04-05T02:35:20;102396.41;;;3.40;73.49
65758;BME280;52495;52.208;5.158;2023-04-05T02:37:50;102401.56;;;3.42;73.22
65758;BME280;52495;52.208;5.158;2023-04-05T02:40:17;102389.56;;;3.39;73.91
65758;BME280;52495;52.208;5.158;2023-04-05T02:42:44;102390.50;;;3.41;74.09
65758;BME280;52495;52.208;5.158;2023-04-05T02:45:11;102389.59;;;3.41;73.34
65758;BME280;52495;52.208;5.158;2023-04-05T02:47:38;102393.03;;;3.41;73.85
65758;BME280;52495;52.208;5.158;2023-04-05T02:50:06;102388.63;;;3.37;74.17
65758;BME280;52495;52.208;5.158;2023-04-05T02:52:39;102389.31;;;3.33;74.47
65758;BME280;52495;52.208;5.158;2023-04-05T02:55:08;102387.53;;;3.30;74.11
65758;BME280;52495;52.208;5.158;2023-04-05T02:57:35;102381.53;;;3.30;74.14
65758;BME280;52495;52.208;5.158;2023-04-05T03:00:12;102384.91;;;3.29;74.52
65758;BME280;52495;52.208;5.158;2023-04-05T03:02:39;102381.41;;;3.27;74.52
65758;BME280;52495;52.208;5.158;2023-04-05T03:05:07;102385.66;;;3.26;74.47
65758;BME280;52495;52.208;5.158;2023-04-05T03:07:35;102373.84;;;3.28;74.48
65758;BME280;52495;52.208;5.158;2023-04-05T03:10:08;102367.78;;;3.26;74.74
65758;BME280;52495;52.208;5.158;2023-04-05T03:12:38;102370.28;;;3.25;74.99
65758;BME280;52495;52.208;5.158;2023-04-05T03:15:07;102370.09;;;3.20;75.08
65758;BME280;52495;52.208;5.158;2023-04-05T03:17:39;102369.13;;;3.16;74.72
65758;BME280;52495;52.208;5.158;2023-04-05T03:20:11;102371.72;;;3.18;75.38
65758;BME280;52495;52.208;5.158;2023-04-05T03:22:38;102369.13;;;3.16;75.17
65758;BME280;52495;52.208;5.158;2023-04-05T03:25:08;102357.13;;;3.14;75.41
65758;BME280;52495;52.208;5.158;2023-04-05T03:27:41;102363.84;;;3.12;75.62
65758;BME280;52495;52.208;5.158;2023-04-05T03:30:12;102361.44;;;3.15;75.59
65758;BME280;52495;52.208;5.158;2023-04-05T03:32:47;102360.63;;;3.16;75.34
65758;BME280;52495;52.208;5.158;2023-04-05T03:35:33;102352.84;;;3.13;75.04
65758;BME280;52495;52.208;5.158;2023-04-05T03:38:01;102356.88;;;3.08;75.71
65758;BME280;52495;52.208;5.158;2023-04-05T03:40:31;102355.94;;;3.06;74.95
65758;BME280;52495;52.208;5.158;2023-04-05T03:42:58;102357.56;;;3.03;75.19
65758;BME280;52495;52.208;5.158;2023-04-05T03:45:25;102352.34;;;3.00;75.44
65758;BME280;52495;52.208;5.158;2023-04-05T03:47:54;102361.53;;;2.95;75.56
65758;BME280;52495;52.208;5.158;2023-04-05T03:50:21;102354.69;;;2.94;76.20
65758;BME280;52495;52.208;5.158;2023-04-05T03:52:47;102357.56;;;3.03;75.59
65758;BME280;52495;52.208;5.158;2023-04-05T03:55:15;102359.69;;;2.93;75.56
65758;BME280;52495;52.208;5.158;2023-04-05T03:57:44;102364.59;;;2.86;75.46
65758;BME280;52495;52.208;5.158;2023-04-05T04:00:21;102361.97;;;2.85;75.71
65758;BME280;52495;52.208;5.158;2023-04-05T04:03:12;102364.59;;;2.86;75.71
65758;BME280;52495;52.208;5.158;2023-04-05T04:05:43;102365.31;;;2.84;75.41
65758;BME280;52495;52.208;5.158;2023-04-05T04:08:11;102367.78;;;2.81;75.73
65758;BME280;52495;52.208;5.158;2023-04-05T04:10:38;102363.53;;;2.81;75.75
65758;BME280;52495;52.208;5.158;2023-04-05T04:13:15;102360.94;;;2.80;75.40
65758;BME280;52495;52.208;5.158;2023-04-05T04:15:45;102363.41;;;2.78;75.46
65758;BME280;52495;52.208;5.158;2023-04-05T04:18:35;102363.41;;;2.78;75.83
65758;BME280;52495;52.208;5.158;2023-04-05T04:21:25;102364.91;;;2.73;76.24
65758;BME280;52495;52.208;5.158;2023-04-05T04:24:15;102356.75;;;2.82;75.33
65758;BME280;52495;52.208;5.158;2023-04-05T04:27:01;102358.94;;;2.72;75.86
65758;BME280;52495;52.208;5.158;2023-04-05T04:29:50;102358.38;;;2.80;74.98
65758;BME280;52495;52.208;5.158;2023-04-05T04:32:46;102357.00;;;2.67;74.98
65758;BME280;52495;52.208;5.158;2023-04-05T04:35:45;102353.94;;;2.76;74.50
65758;BME280;52495;52.208;5.158;2023-04-05T04:38:39;102353.03;;;2.73;74.30
65758;BME280;52495;52.208;5.158;2023-04-05T04:41:26;102360.03;;;2.79;73.65
65758;BME280;52495;52.208;5.158;2023-04-05T04:44:24;102364.47;;;2.62;74.72
65758;BME280;52495;52.208;5.158;2023-04-05T04:47:15;102356.38;;;2.51;75.65
65758;BME280;52495;52.208;5.158;2023-04-05T04:49:46;102363.97;;;2.50;76.12
65758;BME280;52495;52.208;5.158;2023-04-05T04:52:13;102348.88;;;2.54;75.03
65758;BME280;52495;52.208;5.158;2023-04-05T04:54:40;102354.56;;;2.49;75.42
65758;BME280;52495;52.208;5.158;2023-04-05T04:57:07;102350.91;;;2.42;76.23
65758;BME280;52495;52.208;5.158;2023-04-05T04:59:35;102357.03;;;2.46;75.88
65758;BME280;52495;52.208;5.158;2023-04-05T05:02:03;102355.28;;;2.45;75.45
65758;BME280;52495;52.208;5.158;2023-04-05T05:04:34;102353.59;;;2.45;75.28
65758;BME280;52495;52.208;5.158;2023-04-05T05:07:01;102342.97;;;2.55;74.15
65758;BME280;52495;52.208;5.158;2023-04-05T05:09:28;102351.97;;;2.47;74.66
65758;BME280;52495;52.208;5.158;2023-04-05T05:11:57;102348.16;;;2.37;75.60
65758;BME280;52495;52.208;5.158;2023-04-05T05:14:26;102353.44;;;2.42;75.15
65758;BME280;52495;52.208;5.158;2023-04-05T05:16:52;102353.16;;;2.55;74.48
65758;BME280;52495;52.208;5.158;2023-04-05T05:19:25;102350.50;;;2.52;74.53
65758;BME280;52495;52.208;5.158;2023-04-05T05:21:55;102351.41;;;2.33;75.63
65758;BME280;52495;52.208;5.158;2023-04-05T05:24:22;102346.13;;;2.28;76.45
65758;BME280;52495;52.208;5.158;2023-04-05T05:26:49;102348.66;;;2.28;76.03
65758;BME280;52495;52.208;5.158;2023-04-05T05:29:17;102347.41;;;2.40;75.42
65758;BME280;52495;52.208;5.158;2023-04-05T05:31:44;102350.72;;;2.37;75.71
65758;BME280;52495;52.208;5.158;2023-04-05T05:34:11;102349.47;;;2.49;74.39
65758;BME280;52495;52.208;5.158;2023-04-05T05:36:42;102357.50;;;2.37;75.18
65758;BME280;52495;52.208;5.158;2023-04-05T05:39:10;102351.47;;;2.35;75.79
65758;BME280;52495;52.208;5.158;2023-04-05T05:41:37;102351.22;;;2.50;74.78
65758;BME280;52495;52.208;5.158;2023-04-05T05:44:05;102349.88;;;2.37;75.74
65758;BME280;52495;52.208;5.158;2023-04-05T05:46:32;102350.91;;;2.42;75.58
65758;BME280;52495;52.208;5.158;2023-04-05T05:48:59;102348.13;;;2.36;76.12
65758;BME280;52495;52.208;5.158;2023-04-05T05:51:25;102348.25;;;2.39;76.49
65758;BME280;52495;52.208;5.158;2023-04-05T05:53:52;102359.63;;;2.47;76.35
65758;BME280;52495;52.208;5.158;2023-04-05T05:56:20;102358.00;;;2.49;76.03
65758;BME280;52495;52.208;5.158;2023-04-05T05:58:47;102355.59;;;2.52;76.30
65758;BME280;52495;52.208;5.158;2023-04-05T06:01:14;102353.97;;;2.54;76.42
65758;BME280;52495;52.208;5.158;2023-04-05T06:03:41;102364.03;;;2.51;76.41
65758;BME280;52495;52.208;5.158;2023-04-05T06:06:08;102361.66;;;2.56;75.77
65758;BME280;52495;52.208;5.158;2023-04-05T06:08:36;102356.19;;;2.68;75.89
65758;BME280;52495;52.208;5.158;2023-04-05T06:11:03;102358.13;;;2.73;75.23
65758;BME280;52495;52.208;5.158;2023-04-05T06:13:31;102360.63;;;2.72;75.31
65758;BME280;52495;52.208;5.158;2023-04-05T06:16:00;102356.75;;;2.82;75.40
65758;BME280;52495;52.208;5.158;2023-04-05T06:18:26;102358.59;;;2.86;75.82
65758;BME280;52495;52.208;5.158;2023-04-05T06:20:54;102354.69;;;2.94;75.54
65758;BME280;52495;52.208;5.158;2023-04-05T06:23:21;102359.03;;;2.97;75.28
65758;BME280;52495;52.208;5.158;2023-04-05T06:25:47;102356.84;;;3.06;75.64
65758;BME280;52495;52.208;5.158;2023-04-05T06:28:14;102351.94;;;3.12;75.19
65758;BME280;52495;52.208;5.158;2023-04-05T06:30:42;102352.06;;;3.15;74.66
65758;BME280;52495;52.208;5.158;2023-04-05T06:33:09;102349.75;;;3.22;74.31
65758;BME280;52495;52.208;5.158;2023-04-05T06:35:36;102347.41;;;3.28;74.54
65758;BME280;52495;52.208;5.158;2023-04-05T06:38:02;102353.69;;;3.36;74.10
65758;BME280;52495;52.208;5.158;2023-04-05T06:40:29;102350.44;;;3.40;73.58
65758;BME280;52495;52.208;5.158;2023-04-05T06:42:56;102348.06;;;3.45;73.54
65758;BME280;52495;52.208;5.158;2023-04-05T06:45:27;102350.19;;;3.57;73.06
65758;BME280;52495;52.208;5.158;2023-04-05T06:47:55;102346.06;;;3.60;73.22
65758;BME280;52495;52.208;5.158;2023-04-05T06:50:22;102348.06;;;3.69;72.54
65758;BME280;52495;52.208;5.158;2023-04-05T06:52:49;102344.97;;;3.78;72.48
65758;BME280;52495;52.208;5.158;2023-04-05T06:55:16;102344.44;;;3.87;72.50
65758;BME280;52495;52.208;5.158;2023-04-05T06:57:43;102344.75;;;3.96;72.31
65758;BME280;52495;52.208;5.158;2023-04-05T07:00:11;102336.69;;;4.09;72.27
65758;BME280;52495;52.208;5.158;2023-04-05T07:02:38;102349.78;;;4.19;71.49
65758;BME280;52495;52.208;5.158;2023-04-05T07:05:07;102341.53;;;4.28;71.00
65758;BME280;52495;52.208;5.158;2023-04-05T07:07:37;102348.78;;;4.41;69.67
65758;BME280;52495;52.208;5.158;2023-04-05T07:10:06;102344.19;;;4.56;69.48
65758;BME280;52495;52.208;5.158;2023-04-05T07:12:32;102343.75;;;4.70;69.10
65758;BME280;52495;52.208;5.158;2023-04-05T07:14:59;102337.31;;;4.83;68.01
65758;BME280;52495;52.208;5.158;2023-04-05T07:17:26;102335.19;;;4.97;67.07
65758;BME280;52495;52.208;5.158;2023-04-05T07:19:53;102333.88;;;5.10;66.65
65758;BME280;52495;52.208;5.158;2023-04-05T07:22:21;102329.94;;;5.21;65.81
65758;BME280;52495;52.208;5.158;2023-04-05T07:24:48;102340.75;;;5.41;65.68
65758;BME280;52495;52.208;5.158;2023-04-05T07:27:17;102331.41;;;5.43;65.15
65758;BME280;52495;52.208;5.158;2023-04-05T07:29:43;102340.22;;;5.53;65.08
65758;BME280;52495;52.208;5.158;2023-04-05T07:32:12;102341.34;;;5.63;64.09
65758;BME280;52495;52.208;5.158;2023-04-05T07:34:39;102333.97;;;5.74;64.52
65758;BME280;52495;52.208;5.158;2023-04-05T07:37:06;102337.72;;;5.87;63.46
65758;BME280;52495;52.208;5.158;2023-04-05T07:39:34;102333.84;;;6.01;62.98
65758;BME280;52495;52.208;5.158;2023-04-05T07:42:01;102329.69;;;6.06;62.10
65758;BME280;52495;52.208;5.158;2023-04-05T07:44:28;102329.84;;;6.13;60.69
65758;BME280;52495;52.208;5.158;2023-04-05T07:46:55;102318.16;;;6.24;60.95
65758;BME280;52495;52.208;5.158;2023-04-05T07:49:24;102320.16;;;6.34;60.72
65758;BME280;52495;52.208;5.158;2023-04-05T07:51:53;102321.19;;;6.43;58.11
65758;BME280;52495;52.208;5.158;2023-04-05T07:54:20;102328.28;;;6.53;59.18
65758;BME280;52495;52.208;5.158;2023-04-05T07:56:49;102325.00;;;6.60;58.20
65758;BME280;52495;52.208;5.158;2023-04-05T07:59:16;102323.53;;;6.70;58.29
65758;BME280;52495;52.208;5.158;2023-04-05T08:01:43;102317.81;;;6.82;58.26
65758;BME280;52495;52.208;5.158;2023-04-05T08:04:09;102328.50;;;7.01;58.13
65758;BME280;52495;52.208;5.158;2023-04-05T08:06:37;102320.88;;;7.05;56.61
65758;BME280;52495;52.208;5.158;2023-04-05T08:09:04;102321.31;;;7.25;55.46
65758;BME280;52495;52.208;5.158;2023-04-05T08:11:32;102322.16;;;7.26;54.99
65758;BME280;52495;52.208;5.158;2023-04-05T08:14:01;102314.59;;;7.32;55.46
65758;BME280;52495;52.208;5.158;2023-04-05T08:16:28;102314.84;;;7.44;55.50
65758;BME280;52495;52.208;5.158;2023-04-05T08:18:54;102304.63;;;7.48;54.09
65758;BME280;52495;52.208;5.158;2023-04-05T08:21:21;102312.41;;;7.52;54.04
65758;BME280;52495;52.208;5.158;2023-04-05T08:23:48;102310.91;;;7.64;53.61
65758;BME280;52495;52.208;5.158;2023-04-05T08:26:15;102306.88;;;7.77;52.71
65758;BME280;52495;52.208;5.158;2023-04-05T08:28:43;102305.34;;;7.88;51.89
65758;BME280;52495;52.208;5.158;2023-04-05T08:31:11;102301.22;;;7.96;49.74
65758;BME280;52495;52.208;5.158;2023-04-05T08:33:38;102303.97;;;8.07;49.53
65758;BME280;52495;52.208;5.158;2023-04-05T08:36:05;102302.38;;;8.14;50.02
65758;BME280;52495;52.208;5.158;2023-04-05T08:38:32;102295.69;;;8.25;49.34
65758;BME280;52495;52.208;5.158;2023-04-05T08:41:06;102296.00;;;8.45;46.55
65758;BME280;52495;52.208;5.158;2023-04-05T08:43:43;102291.91;;;8.57;46.02
65758;BME280;52495;52.208;5.158;2023-04-05T08:46:14;102291.72;;;8.46;44.14
65758;BME280;52495;52.208;5.158;2023-04-05T08:48:41;102290.00;;;8.46;44.26
65758;BME280;52495;52.208;5.158;2023-04-05T08:51:09;102282.44;;;8.56;44.85
65758;BME280;52495;52.208;5.158;2023-04-05T08:53:35;102291.13;;;8.61;44.86
65758;BME280;52495;52.208;5.158;2023-04-05T08:56:03;102279.25;;;8.74;44.78
65758;BME280;52495;52.208;5.158;2023-04-05T08:58:30;102282.88;;;8.88;43.37
65758;BME280;52495;52.208;5.158;2023-04-05T09:00:59;102285.50;;;8.91;44.72
65758;BME280;52495;52.208;5.158;2023-04-05T09:03:30;102285.53;;;8.93;42.76
65758;BME280;52495;52.208;5.158;2023-04-05T09:06:04;102283.06;;;9.01;42.94
65758;BME280;52495;52.208;5.158;2023-04-05T09:08:33;102284.09;;;9.14;43.67
65758;BME280;52495;52.208;5.158;2023-04-05T09:11:00;102273.78;;;9.17;42.86
65758;BME280;52495;52.208;5.158;2023-04-05T09:13:26;102274.75;;;9.26;43.01
65758;BME280;52495;52.208;5.158;2023-04-05T09:15:53;102279.19;;;9.37;43.32
65758;BME280;52495;52.208;5.158;2023-04-05T09:18:21;102271.66;;;9.55;41.82
65758;BME280;52495;52.208;5.158;2023-04-05T09:20:49;102273.31;;;9.50;42.21
65758;BME280;52495;52.208;5.158;2023-04-05T09:23:15;102264.66;;;9.45;42.15
65758;BME280;52495;52.208;5.158;2023-04-05T09:25:42;102265.59;;;9.50;41.77
65758;BME280;52495;52.208;5.158;2023-04-05T09:28:11;102270.81;;;9.60;42.46
65758;BME280;52495;52.208;5.158;2023-04-05T09:30:37;102273.47;;;9.66;42.22
65758;BME280;52495;52.208;5.158;2023-04-05T09:33:07;102267.53;;;9.73;41.92
65758;BME280;52495;52.208;5.158;2023-04-05T09:35:35;102264.13;;;9.80;41.92
65758;BME280;52495;52.208;5.158;2023-04-05T09:38:04;102259.91;;;9.85;41.73
65758;BME280;52495;52.208;5.158;2023-04-05T09:40:40;102258.22;;;9.94;40.74
65758;BME280;52495;52.208;5.158;2023-04-05T09:43:07;102260.13;;;10.12;41.00
65758;BME280;52495;52.208;5.158;2023-04-05T09:45:38;102263.56;;;10.15;42.17
65758;BME280;52495;52.208;5.158;2023-04-05T09:48:06;102261.06;;;10.26;41.14
65758;BME280;52495;52.208;5.158;2023-04-05T09:50:34;102258.50;;;10.28;40.73
65758;BME280;52495;52.208;5.158;2023-04-05T09:53:08;102260.22;;;10.29;41.14
65758;BME280;52495;52.208;5.158;2023-04-05T09:55:40;102256.75;;;10.27;40.86
65758;BME280;52495;52.208;5.158;2023-04-05T09:58:10;102259.41;;;10.31;40.79
65758;BME280;52495;52.208;5.158;2023-04-05T10:00:37;102249.94;;;10.35;41.06
65758;BME280;52495;52.208;5.158;2023-04-05T10:03:04;102250.81;;;10.37;39.89
65758;BME280;52495;52.208;5.158;2023-04-05T10:05:31;102252.44;;;10.24;40.03
65758;BME280;52495;52.208;5.158;2023-04-05T10:07:58;102251.44;;;10.02;40.35
65758;BME280;52495;52.208;5.158;2023-04-05T10:10:28;102241.31;;;10.33;40.12
65758;BME280;52495;52.208;5.158;2023-04-05T10:12:56;102243.81;;;10.22;40.06
65758;BME280;52495;52.208;5.158;2023-04-05T10:15:25;102243.84;;;10.25;41.32
65758;BME280;52495;52.208;5.158;2023-04-05T10:17:56;102233.56;;;10.33;40.69
65758;BME280;52495;52.208;5.158;2023-04-05T10:20:29;102231.94;;;10.44;40.54
65758;BME280;52495;52.208;5.158;2023-04-05T10:23:05;102229.44;;;10.60;40.09
65758;BME280;52495;52.208;5.158;2023-04-05T10:28:31;102226.09;;;10.75;39.02
65758;BME280;52495;52.208;5.158;2023-04-05T10:31:04;102219.25;;;10.85;39.97
65758;BME280;52495;52.208;5.158;2023-04-05T10:33:39;102219.31;;;11.03;39.90
65758;BME280;52495;52.208;5.158;2023-04-05T10:36:13;102221.88;;;11.02;39.12
65758;BME280;52495;52.208;5.158;2023-04-05T10:38:51;102221.91;;;11.10;38.37
65758;BME280;52495;52.208;5.158;2023-04-05T10:41:25;102214.13;;;11.05;38.08
65758;BME280;52495;52.208;5.158;2023-04-05T10:43:55;102213.34;;;11.23;37.91
65758;BME280;52495;52.208;5.158;2023-04-05T10:46:23;102206.44;;;11.25;38.12
65758;BME280;52495;52.208;5.158;2023-04-05T10:48:58;102201.25;;;11.14;38.33
65758;BME280;52495;52.208;5.158;2023-04-05T10:51:28;102201.25;;;11.19;38.83
65758;BME280;52495;52.208;5.158;2023-04-05T10:53:55;102214.13;;;10.96;37.40
65758;BME280;52495;52.208;5.158;2023-04-05T10:56:23;102205.53;;;11.04;37.51
65758;BME280;52495;52.208;5.158;2023-04-05T10:58:53;102204.72;;;11.24;38.33
65758;BME280;52495;52.208;5.158;2023-04-05T11:01:21;102205.59;;;11.26;38.96
65758;BME280;52495;52.208;5.158;2023-04-05T11:03:49;102198.69;;;11.25;38.62
65758;BME280;52495;52.208;5.158;2023-04-05T11:06:18;102197.81;;;11.37;38.92
65758;BME280;52495;52.208;5.158;2023-04-05T11:08:46;102191.81;;;11.43;39.04
65758;BME280;52495;52.208;5.158;2023-04-05T11:11:15;102182.31;;;11.48;38.47
65758;BME280;52495;52.208;5.158;2023-04-05T11:13:49;102182.31;;;11.59;38.07
65758;BME280;52495;52.208;5.158;2023-04-05T11:16:19;102184.06;;;11.64;38.02
65758;BME280;52495;52.208;5.158;2023-04-05T11:18:47;102174.56;;;11.69;37.80
65758;BME280;52495;52.208;5.158;2023-04-05T11:21:22;102175.44;;;11.79;38.08
65758;BME280;52495;52.208;5.158;2023-04-05T11:24:03;102171.97;;;11.85;37.84
65758;BME280;52495;52.208;5.158;2023-04-05T11:26:32;102164.19;;;11.93;38.28
65758;BME280;52495;52.208;5.158;2023-04-05T11:28:59;102167.66;;;12.03;38.04
65758;BME280;52495;52.208;5.158;2023-04-05T11:31:30;102168.53;;;12.03;37.85
65758;BME280;52495;52.208;5.158;2023-04-05T11:33:58;102164.22;;;11.82;37.49
65758;BME280;52495;52.208;5.158;2023-04-05T11:36:37;102158.19;;;11.67;37.41
65758;BME280;52495;52.208;5.158;2023-04-05T11:39:25;102164.22;;;11.66;37.43
65758;BME280;52495;52.208;5.158;2023-04-05T11:41:54;102164.22;;;11.76;37.66
65758;BME280;52495;52.208;5.158;2023-04-05T11:44:21;102153.84;;;11.79;36.95
65758;BME280;52495;52.208;5.158;2023-04-05T11:46:51;102158.19;;;11.81;37.03
65758;BME280;52495;52.208;5.158;2023-04-05T11:49:20;102153.00;;;11.81;37.65
65758;BME280;52495;52.208;5.158;2023-04-05T11:51:47;102146.06;;;11.97;37.68
65758;BME280;52495;52.208;5.158;2023-04-05T11:54:27;102142.63;;;12.11;37.39
65758;BME280;52495;52.208;5.158;2023-04-05T11:56:54;102137.44;;;12.16;37.01
65758;BME280;52495;52.208;5.158;2023-04-05T11:59:27;102126.16;;;12.29;36.75
65758;BME280;52495;52.208;5.158;2023-04-05T12:01:59;102123.53;;;12.38;36.65
65758;BME280;52495;52.208;5.158;2023-04-05T12:04:26;102129.53;;;12.48;36.63
65758;BME280;52495;52.208;5.158;2023-04-05T12:07:15;102128.66;;;12.54;36.00
65758;BME280;52495;52.208;5.158;2023-04-05T12:10:09;102121.72;;;12.60;35.86
65758;BME280;52495;52.208;5.158;2023-04-05T12:12:42;102116.50;;;12.71;36.44
65758;BME280;52495;52.208;5.158;2023-04-05T12:15:10;102119.13;;;12.64;35.25
65758;BME280;52495;52.208;5.158;2023-04-05T12:17:44;102114.78;;;12.64;35.37
65758;BME280;52495;52.208;5.158;2023-04-05T12:20:12;102119.13;;;12.64;35.86
65758;BME280;52495;52.208;5.158;2023-04-05T12:22:41;102113.03;;;12.69;36.12
65758;BME280;52495;52.208;5.158;2023-04-05T12:25:08;102115.69;;;12.57;35.66
65758;BME280;52495;52.208;5.158;2023-04-05T12:27:36;102113.06;;;12.66;36.34
65758;BME280;52495;52.208;5.158;2023-04-05T12:30:07;102105.28;;;12.66;35.96
65758;BME280;52495;52.208;5.158;2023-04-05T12:32:46;102106.94;;;12.77;36.11
65758;BME280;52495;52.208;5.158;2023-04-05T12:35:15;102107.72;;;12.91;36.26
65758;BME280;52495;52.208;5.158;2023-04-05T12:37:42;102106.75;;;13.06;36.18
65758;BME280;52495;52.208;5.158;2023-04-05T12:40:09;102099.75;;;13.17;35.87
65758;BME280;52495;52.208;5.158;2023-04-05T12:42:38;102101.47;;;13.23;36.17
65758;BME280;52495;52.208;5.158;2023-04-05T12:45:08;102097.13;;;13.24;35.81
65758;BME280;52495;52.208;5.158;2023-04-05T12:47:35;102091.84;;;13.33;36.08
65758;BME280;52495;52.208;5.158;2023-04-05T12:50:16;102097.91;;;13.33;35.50
65758;BME280;52495;52.208;5.158;2023-04-05T12:52:57;102095.38;;;13.26;34.41
65758;BME280;52495;52.208;5.158;2023-04-05T12:55:25;102077.44;;;12.96;35.16
65758;BME280;52495;52.208;5.158;2023-04-05T12:57:53;102086.91;;;13.00;35.52
65758;BME280;52495;52.208;5.158;2023-04-05T13:00:21;102082.56;;;13.05;35.91
65758;BME280;52495;52.208;5.158;2023-04-05T13:02:53;102086.03;;;13.04;35.59
65758;BME280;52495;52.208;5.158;2023-04-05T13:05:23;102079.06;;;13.14;35.76
65758;BME280;52495;52.208;5.158;2023-04-05T13:07:50;102072.22;;;13.02;35.33
65758;BME280;52495;52.208;5.158;2023-04-05T13:10:17;102076.38;;;13.20;35.68
65758;BME280;52495;52.208;5.158;2023-04-05T13:12:44;102065.03;;;13.34;35.50
65758;BME280;52495;52.208;5.158;2023-04-05T13:15:12;102070.19;;;13.43;35.43
65758;BME280;52495;52.208;5.158;2023-04-05T13:17:40;102065.88;;;13.38;34.38